sensor_id;sensor_type;location;lat;lon;timestamp;P1;durP1;ratioP1;P2;durP2;ratioP2
57113;SDS011;42994;51.606;9.988;2023-04-03T00:01:49;8.32;;;1.67;;
57113;SDS011;42994;51.606;9.988;2023-04-03T00:04:15;4.50;;;1.40;;
57113;SDS011;42994;51.606;9.988;2023-04-03T00:06:42;2.67;;;1.23;;
57113;SDS011;42994;51.606;9.988;2023-04-03T00:09:10;2.13;;;1.10;;
57113;SDS011;42994;51.606;9.988;2023-04-03T00:11:37;2.10;;;1.40;;
57113;SDS011;42994;51.606;9.988;2023-04-03T00:14:03;3.17;;;1.52;;
57113;SDS011;42994;51.606;9.988;2023-04-03T00:16:30;2.50;;;1.63;;
57113;SDS011;42994;51.606;9.988;2023-04-03T00:18:57;3.75;;;1.38;;
57113;SDS011;42994;51.606;9.988;2023-04-03T00:21:23;4.90;;;1.25;;
57113;SDS011;42994;51.606;9.988;2023-04-03T00:23:51;2.35;;;1.10;;
57113;SDS011;42994;51.606;9.988;2023-04-03T00:26:19;3.13;;;1.27;;
57113;SDS011;42994;51.606;9.988;2023-04-03T00:28:47;2.45;;;1.25;;
57113;SDS011;42994;51.606;9.988;2023-04-03T00:31:14;6.05;;;1.90;;
57113;SDS011;42994;51.606;9.988;2023-04-03T00:33:42;5.85;;;1.85;;
57113;SDS011;42994;51.606;9.988;2023-04-03T00:36:09;3.95;;;1.90;;
57113;SDS011;42994;51.606;9.988;2023-04-03T00:38:36;6.28;;;2.05;;
57113;SDS011;42994;51.606;9.988;2023-04-03T00:41:03;4.90;;;2.28;;
57113;SDS011;42994;51.606;9.988;2023-04-03T00:43:32;7.90;;;2.20;;
57113;SDS011;42994;51.606;9.988;2023-04-03T00:45:58;16.20;;;2.25;;
57113;SDS011;42994;51.606;9.988;2023-04-03T00:48:26;6.15;;;2.40;;
57113;SDS011;42994;51.606;9.988;2023-04-03T00:50:56;6.47;;;1.85;;
57113;SDS011;42994;51.606;9.988;2023-04-03T00:53:25;5.25;;;1.77;;
57113;SDS011;42994;51.606;9.988;2023-04-03T00:55:56;2.47;;;1.73;;
57113;SDS011;42994;51.606;9.988;2023-04-03T00:58:25;4.90;;;1.73;;
57113;SDS011;42994;51.606;9.988;2023-04-03T01:00:58;2.95;;;1.80;;
57113;SDS011;42994;51.606;9.988;2023-04-03T01:03:30;9.70;;;1.90;;
57113;SDS011;42994;51.606;9.988;2023-04-03T01:05:59;6.40;;;2.08;;
57113;SDS011;42994;51.606;9.988;2023-04-03T01:08:26;7.40;;;1.77;;
57113;SDS011;42994;51.606;9.988;2023-04-03T01:10:53;3.30;;;1.45;;
57113;SDS011;42994;51.606;9.988;2023-04-03T01:13:23;3.33;;;1.95;;
57113;SDS011;42994;51.606;9.988;2023-04-03T01:15:51;5.97;;;1.73;;
57113;SDS011;42994;51.606;9.988;2023-04-03T01:18:20;5.50;;;1.83;;
57113;SDS011;42994;51.606;9.988;2023-04-03T01:21:05;4.03;;;1.45;;
57113;SDS011;42994;51.606;9.988;2023-04-03T01:24:09;3.22;;;1.05;;
57113;SDS011;42994;51.606;9.988;2023-04-03T01:26:48;3.78;;;1.30;;
57113;SDS011;42994;51.606;9.988;2023-04-03T01:29:15;6.38;;;1.88;;
57113;SDS011;42994;51.606;9.988;2023-04-03T01:31:48;6.60;;;1.60;;
57113;SDS011;42994;51.606;9.988;2023-04-03T01:34:16;6.03;;;1.58;;
57113;SDS011;42994;51.606;9.988;2023-04-03T01:36:43;3.85;;;1.10;;
57113;SDS011;42994;51.606;9.988;2023-04-03T01:39:10;4.70;;;1.52;;
57113;SDS011;42994;51.606;9.988;2023-04-03T01:41:37;4.70;;;1.30;;
57113;SDS011;42994;51.606;9.988;2023-04-03T01:44:11;8.55;;;2.33;;
57113;SDS011;42994;51.606;9.988;2023-04-03T01:46:38;6.18;;;1.60;;
57113;SDS011;42994;51.606;9.988;2023-04-03T01:49:08;3.08;;;1.20;;
57113;SDS011;42994;51.606;9.988;2023-04-03T01:51:35;4.32;;;1.33;;
57113;SDS011;42994;51.606;9.988;2023-04-03T01:54:02;4.80;;;1.52;;
57113;SDS011;42994;51.606;9.988;2023-04-03T01:56:29;4.90;;;1.70;;
57113;SDS011;42994;51.606;9.988;2023-04-03T01:58:58;5.88;;;1.20;;
57113;SDS011;42994;51.606;9.988;2023-04-03T02:01:25;5.25;;;1.65;;
57113;SDS011;42994;51.606;9.988;2023-04-03T02:03:52;5.93;;;1.70;;
57113;SDS011;42994;51.606;9.988;2023-04-03T02:06:20;2.92;;;1.58;;
57113;SDS011;42994;51.606;9.988;2023-04-03T02:08:46;6.45;;;1.45;;
57113;SDS011;42994;51.606;9.988;2023-04-03T02:11:13;3.75;;;1.60;;
57113;SDS011;42994;51.606;9.988;2023-04-03T02:13:41;6.47;;;3.15;;
57113;SDS011;42994;51.606;9.988;2023-04-03T02:16:09;5.97;;;1.50;;
57113;SDS011;42994;51.606;9.988;2023-04-03T02:18:37;6.57;;;1.48;;
57113;SDS011;42994;51.606;9.988;2023-04-03T02:21:04;6.20;;;1.60;;
57113;SDS011;42994;51.606;9.988;2023-04-03T02:23:32;5.25;;;1.70;;
57113;SDS011;42994;51.606;9.988;2023-04-03T02:26:04;4.22;;;1.67;;
57113;SDS011;42994;51.606;9.988;2023-04-03T02:28:33;12.40;;;1.67;;
57113;SDS011;42994;51.606;9.988;2023-04-03T02:31:01;3.55;;;1.67;;
57113;SDS011;42994;51.606;9.988;2023-04-03T02:33:29;4.30;;;1.35;;
57113;SDS011;42994;51.606;9.988;2023-04-03T02:35:57;2.25;;;1.35;;
57113;SDS011;42994;51.606;9.988;2023-04-03T02:38:24;4.22;;;1.35;;
57113;SDS011;42994;51.606;9.988;2023-04-03T02:40:57;5.63;;;1.60;;
57113;SDS011;42994;51.606;9.988;2023-04-03T02:43:26;4.15;;;2.08;;
57113;SDS011;42994;51.606;9.988;2023-04-03T02:45:53;7.57;;;2.10;;
57113;SDS011;42994;51.606;9.988;2023-04-03T02:48:20;4.68;;;1.48;;
57113;SDS011;42994;51.606;9.988;2023-04-03T02:50:47;4.60;;;2.35;;
57113;SDS011;42994;51.606;9.988;2023-04-03T02:53:13;6.10;;;2.03;;
57113;SDS011;42994;51.606;9.988;2023-04-03T02:55:42;3.55;;;1.08;;
57113;SDS011;42994;51.606;9.988;2023-04-03T02:58:10;6.07;;;2.03;;
57113;SDS011;42994;51.606;9.988;2023-04-03T03:00:37;3.08;;;1.33;;
57113;SDS011;42994;51.606;9.988;2023-04-03T03:03:04;3.83;;;1.40;;
57113;SDS011;42994;51.606;9.988;2023-04-03T03:05:31;7.53;;;1.60;;
57113;SDS011;42994;51.606;9.988;2023-04-03T03:07:58;3.40;;;1.38;;
57113;SDS011;42994;51.606;9.988;2023-04-03T03:10:25;2.97;;;1.45;;
57113;SDS011;42994;51.606;9.988;2023-04-03T03:12:51;6.68;;;1.58;;
57113;SDS011;42994;51.606;9.988;2023-04-03T03:15:19;1.73;;;1.00;;
57113;SDS011;42994;51.606;9.988;2023-04-03T03:17:47;8.68;;;1.60;;
57113;SDS011;42994;51.606;9.988;2023-04-03T03:20:13;8.15;;;1.02;;
57113;SDS011;42994;51.606;9.988;2023-04-03T03:22:41;5.22;;;1.33;;
57113;SDS011;42994;51.606;9.988;2023-04-03T03:25:08;3.65;;;1.35;;
57113;SDS011;42994;51.606;9.988;2023-04-03T03:27:35;7.70;;;2.05;;
57113;SDS011;42994;51.606;9.988;2023-04-03T03:30:03;6.65;;;1.65;;
57113;SDS011;42994;51.606;9.988;2023-04-03T03:32:32;3.10;;;1.60;;
57113;SDS011;42994;51.606;9.988;2023-04-03T03:35:00;3.97;;;1.40;;
57113;SDS011;42994;51.606;9.988;2023-04-03T03:37:27;2.80;;;1.20;;
57113;SDS011;42994;51.606;9.988;2023-04-03T03:39:54;6.63;;;1.70;;
57113;SDS011;42994;51.606;9.988;2023-04-03T03:42:21;4.45;;;1.50;;
57113;SDS011;42994;51.606;9.988;2023-04-03T03:44:48;5.72;;;1.83;;
57113;SDS011;42994;51.606;9.988;2023-04-03T03:47:18;4.97;;;1.33;;
57113;SDS011;42994;51.606;9.988;2023-04-03T03:49:46;5.20;;;1.17;;
57113;SDS011;42994;51.606;9.988;2023-04-03T03:52:14;5.13;;;1.58;;
57113;SDS011;42994;51.606;9.988;2023-04-03T03:54:42;4.85;;;1.40;;
57113;SDS011;42994;51.606;9.988;2023-04-03T03:57:08;4.82;;;1.90;;
57113;SDS011;42994;51.606;9.988;2023-04-03T03:59:35;5.07;;;2.33;;
57113;SDS011;42994;51.606;9.988;2023-04-03T04:02:04;5.10;;;2.28;;
57113;SDS011;42994;51.606;9.988;2023-04-03T04:04:31;2.85;;;1.80;;
57113;SDS011;42994;51.606;9.988;2023-04-03T04:07:00;6.32;;;1.77;;
57113;SDS011;42994;51.606;9.988;2023-04-03T04:09:27;4.47;;;2.20;;
57113;SDS011;42994;51.606;9.988;2023-04-03T04:11:53;5.80;;;2.50;;
57113;SDS011;42994;51.606;9.988;2023-04-03T04:14:21;4.25;;;1.70;;
57113;SDS011;42994;51.606;9.988;2023-04-03T04:16:48;10.88;;;1.98;;
57113;SDS011;42994;51.606;9.988;2023-04-03T04:19:21;3.90;;;1.52;;
57113;SDS011;42994;51.606;9.988;2023-04-03T04:21:48;1.88;;;1.42;;
57113;SDS011;42994;51.606;9.988;2023-04-03T04:24:17;10.07;;;2.10;;
57113;SDS011;42994;51.606;9.988;2023-04-03T04:26:45;2.53;;;1.55;;
57113;SDS011;42994;51.606;9.988;2023-04-03T04:29:14;3.05;;;1.60;;
57113;SDS011;42994;51.606;9.988;2023-04-03T04:31:42;5.75;;;1.90;;
57113;SDS011;42994;51.606;9.988;2023-04-03T04:34:08;3.67;;;1.65;;
57113;SDS011;42994;51.606;9.988;2023-04-03T04:36:36;4.90;;;1.58;;
57113;SDS011;42994;51.606;9.988;2023-04-03T04:39:03;8.00;;;1.80;;
57113;SDS011;42994;51.606;9.988;2023-04-03T04:41:33;3.65;;;1.70;;
57113;SDS011;42994;51.606;9.988;2023-04-03T04:44:02;7.18;;;2.20;;
57113;SDS011;42994;51.606;9.988;2023-04-03T04:46:28;4.05;;;1.63;;
57113;SDS011;42994;51.606;9.988;2023-04-03T04:48:57;7.53;;;2.08;;
57113;SDS011;42994;51.606;9.988;2023-04-03T04:51:27;4.57;;;1.88;;
57113;SDS011;42994;51.606;9.988;2023-04-03T04:53:54;4.78;;;1.40;;
57113;SDS011;42994;51.606;9.988;2023-04-03T04:56:22;3.05;;;1.20;;
57113;SDS011;42994;51.606;9.988;2023-04-03T04:58:50;7.10;;;1.95;;
57113;SDS011;42994;51.606;9.988;2023-04-03T05:01:19;8.73;;;2.65;;
57113;SDS011;42994;51.606;9.988;2023-04-03T05:04:10;6.10;;;3.50;;
57113;SDS011;42994;51.606;9.988;2023-04-03T05:06:38;9.25;;;3.90;;
57113;SDS011;42994;51.606;9.988;2023-04-03T05:09:10;9.32;;;3.17;;
57113;SDS011;42994;51.606;9.988;2023-04-03T05:11:38;12.63;;;3.45;;
57113;SDS011;42994;51.606;9.988;2023-04-03T05:14:07;9.25;;;4.28;;
57113;SDS011;42994;51.606;9.988;2023-04-03T05:16:35;7.78;;;4.20;;
57113;SDS011;42994;51.606;9.988;2023-04-03T05:19:02;12.95;;;5.35;;
57113;SDS011;42994;51.606;9.988;2023-04-03T05:21:29;16.10;;;7.88;;
57113;SDS011;42994;51.606;9.988;2023-04-03T05:23:58;21.08;;;7.13;;
57113;SDS011;42994;51.606;9.988;2023-04-03T05:26:29;19.27;;;7.57;;
57113;SDS011;42994;51.606;9.988;2023-04-03T05:28:58;14.90;;;6.40;;
57113;SDS011;42994;51.606;9.988;2023-04-03T05:31:26;13.07;;;5.40;;
57113;SDS011;42994;51.606;9.988;2023-04-03T05:33:55;15.27;;;5.55;;
57113;SDS011;42994;51.606;9.988;2023-04-03T05:36:24;7.70;;;3.78;;
57113;SDS011;42994;51.606;9.988;2023-04-03T05:38:55;6.60;;;2.95;;
57113;SDS011;42994;51.606;9.988;2023-04-03T05:41:23;8.43;;;2.50;;
57113;SDS011;42994;51.606;9.988;2023-04-03T05:43:50;10.55;;;2.90;;
57113;SDS011;42994;51.606;9.988;2023-04-03T05:46:19;5.72;;;2.70;;
57113;SDS011;42994;51.606;9.988;2023-04-03T05:48:52;8.30;;;2.85;;
57113;SDS011;42994;51.606;9.988;2023-04-03T05:51:22;6.10;;;2.47;;
57113;SDS011;42994;51.606;9.988;2023-04-03T05:53:56;10.35;;;2.28;;
57113;SDS011;42994;51.606;9.988;2023-04-03T05:56:31;7.78;;;1.95;;
57113;SDS011;42994;51.606;9.988;2023-04-03T05:58:58;10.20;;;2.85;;
57113;SDS011;42994;51.606;9.988;2023-04-03T06:01:25;6.28;;;2.88;;
57113;SDS011;42994;51.606;9.988;2023-04-03T06:03:53;7.22;;;2.30;;
57113;SDS011;42994;51.606;9.988;2023-04-03T06:06:21;3.72;;;2.08;;
57113;SDS011;42994;51.606;9.988;2023-04-03T06:08:50;10.00;;;2.10;;
57113;SDS011;42994;51.606;9.988;2023-04-03T06:11:17;6.00;;;1.92;;
57113;SDS011;42994;51.606;9.988;2023-04-03T06:13:44;7.35;;;1.98;;
57113;SDS011;42994;51.606;9.988;2023-04-03T06:16:12;5.88;;;2.50;;
57113;SDS011;42994;51.606;9.988;2023-04-03T06:18:40;9.02;;;2.28;;
57113;SDS011;42994;51.606;9.988;2023-04-03T06:21:09;4.82;;;2.05;;
57113;SDS011;42994;51.606;9.988;2023-04-03T06:23:35;4.53;;;2.03;;
57113;SDS011;42994;51.606;9.988;2023-04-03T06:26:02;6.15;;;2.15;;
57113;SDS011;42994;51.606;9.988;2023-04-03T06:28:30;7.00;;;2.25;;
57113;SDS011;42994;51.606;9.988;2023-04-03T06:30:57;4.75;;;2.65;;
57113;SDS011;42994;51.606;9.988;2023-04-03T06:33:23;6.38;;;2.08;;
57113;SDS011;42994;51.606;9.988;2023-04-03T06:35:55;9.00;;;2.97;;
57113;SDS011;42994;51.606;9.988;2023-04-03T06:38:23;6.40;;;2.57;;
57113;SDS011;42994;51.606;9.988;2023-04-03T06:40:50;3.95;;;2.30;;
57113;SDS011;42994;51.606;9.988;2023-04-03T06:43:17;6.63;;;2.72;;
57113;SDS011;42994;51.606;9.988;2023-04-03T06:45:44;7.88;;;2.78;;
57113;SDS011;42994;51.606;9.988;2023-04-03T06:48:11;5.63;;;1.90;;
57113;SDS011;42994;51.606;9.988;2023-04-03T06:50:38;7.63;;;2.58;;
57113;SDS011;42994;51.606;9.988;2023-04-03T06:53:05;5.10;;;2.33;;
57113;SDS011;42994;51.606;9.988;2023-04-03T06:55:33;5.72;;;2.30;;
57113;SDS011;42994;51.606;9.988;2023-04-03T06:58:00;9.88;;;2.30;;
57113;SDS011;42994;51.606;9.988;2023-04-03T07:00:26;5.68;;;2.00;;
57113;SDS011;42994;51.606;9.988;2023-04-03T07:02:53;5.85;;;2.60;;
57113;SDS011;42994;51.606;9.988;2023-04-03T07:05:21;5.28;;;2.10;;
57113;SDS011;42994;51.606;9.988;2023-04-03T07:07:48;6.22;;;1.77;;
57113;SDS011;42994;51.606;9.988;2023-04-03T07:10:14;4.35;;;1.38;;
57113;SDS011;42994;51.606;9.988;2023-04-03T07:12:43;3.20;;;1.85;;
57113;SDS011;42994;51.606;9.988;2023-04-03T07:15:10;6.18;;;2.05;;
57113;SDS011;42994;51.606;9.988;2023-04-03T07:17:38;2.97;;;1.38;;
57113;SDS011;42994;51.606;9.988;2023-04-03T07:20:05;2.70;;;1.27;;
57113;SDS011;42994;51.606;9.988;2023-04-03T07:22:33;3.75;;;1.25;;
57113;SDS011;42994;51.606;9.988;2023-04-03T07:25:00;3.40;;;1.10;;
57113;SDS011;42994;51.606;9.988;2023-04-03T07:27:27;4.53;;;1.40;;
57113;SDS011;42994;51.606;9.988;2023-04-03T07:29:55;3.30;;;1.40;;
57113;SDS011;42994;51.606;9.988;2023-04-03T07:32:22;3.53;;;1.85;;
57113;SDS011;42994;51.606;9.988;2023-04-03T07:34:49;1.27;;;1.17;;
57113;SDS011;42994;51.606;9.988;2023-04-03T07:37:16;3.67;;;1.15;;
57113;SDS011;42994;51.606;9.988;2023-04-03T07:39:43;7.78;;;2.00;;
57113;SDS011;42994;51.606;9.988;2023-04-03T07:42:10;6.70;;;1.42;;
57113;SDS011;42994;51.606;9.988;2023-04-03T07:44:37;4.75;;;1.60;;
57113;SDS011;42994;51.606;9.988;2023-04-03T07:47:05;5.20;;;1.35;;
57113;SDS011;42994;51.606;9.988;2023-04-03T07:49:32;9.57;;;1.73;;
57113;SDS011;42994;51.606;9.988;2023-04-03T07:51:59;4.95;;;1.35;;
57113;SDS011;42994;51.606;9.988;2023-04-03T07:54:26;5.68;;;1.65;;
57113;SDS011;42994;51.606;9.988;2023-04-03T07:56:53;2.72;;;1.48;;
57113;SDS011;42994;51.606;9.988;2023-04-03T07:59:20;4.95;;;1.13;;
57113;SDS011;42994;51.606;9.988;2023-04-03T08:01:46;5.13;;;2.53;;
57113;SDS011;42994;51.606;9.988;2023-04-03T08:04:14;6.13;;;1.90;;
57113;SDS011;42994;51.606;9.988;2023-04-03T08:06:41;2.45;;;1.40;;
57113;SDS011;42994;51.606;9.988;2023-04-03T08:09:07;3.33;;;1.38;;
57113;SDS011;42994;51.606;9.988;2023-04-03T08:11:34;5.75;;;1.38;;
57113;SDS011;42994;51.606;9.988;2023-04-03T08:14:01;3.60;;;1.45;;
57113;SDS011;42994;51.606;9.988;2023-04-03T08:16:28;3.30;;;1.88;;
57113;SDS011;42994;51.606;9.988;2023-04-03T08:18:54;3.55;;;1.42;;
57113;SDS011;42994;51.606;9.988;2023-04-03T08:21:22;7.03;;;0.95;;
57113;SDS011;42994;51.606;9.988;2023-04-03T08:23:50;5.32;;;1.20;;
57113;SDS011;42994;51.606;9.988;2023-04-03T08:26:18;9.15;;;1.48;;
57113;SDS011;42994;51.606;9.988;2023-04-03T08:28:46;4.60;;;1.45;;
57113;SDS011;42994;51.606;9.988;2023-04-03T08:31:14;3.78;;;1.63;;
57113;SDS011;42994;51.606;9.988;2023-04-03T08:33:43;1.00;;;0.90;;
57113;SDS011;42994;51.606;9.988;2023-04-03T08:36:16;0.88;;;0.63;;
57113;SDS011;42994;51.606;9.988;2023-04-03T08:38:45;4.80;;;1.30;;
57113;SDS011;42994;51.606;9.988;2023-04-03T08:41:13;4.10;;;2.00;;
57113;SDS011;42994;51.606;9.988;2023-04-03T08:43:46;3.72;;;0.90;;
57113;SDS011;42994;51.606;9.988;2023-04-03T08:46:22;2.50;;;1.08;;
57113;SDS011;42994;51.606;9.988;2023-04-03T08:48:58;5.18;;;1.35;;
57113;SDS011;42994;51.606;9.988;2023-04-03T08:51:26;2.25;;;1.15;;
57113;SDS011;42994;51.606;9.988;2023-04-03T08:53:58;2.22;;;0.98;;
57113;SDS011;42994;51.606;9.988;2023-04-03T08:56:29;1.75;;;0.82;;
57113;SDS011;42994;51.606;9.988;2023-04-03T08:58:58;3.95;;;1.00;;
57113;SDS011;42994;51.606;9.988;2023-04-03T09:01:27;3.30;;;0.70;;
57113;SDS011;42994;51.606;9.988;2023-04-03T09:04:00;3.28;;;0.80;;
57113;SDS011;42994;51.606;9.988;2023-04-03T09:06:28;5.28;;;1.00;;
57113;SDS011;42994;51.606;9.988;2023-04-03T09:09:02;8.48;;;0.93;;
57113;SDS011;42994;51.606;9.988;2023-04-03T09:11:40;2.45;;;0.90;;
57113;SDS011;42994;51.606;9.988;2023-04-03T09:14:14;1.80;;;0.75;;
57113;SDS011;42994;51.606;9.988;2023-04-03T09:16:49;2.70;;;0.80;;
57113;SDS011;42994;51.606;9.988;2023-04-03T09:19:21;0.57;;;0.57;;
57113;SDS011;42994;51.606;9.988;2023-04-03T09:22:02;2.30;;;1.00;;
57113;SDS011;42994;51.606;9.988;2023-04-03T09:24:39;6.43;;;1.45;;
57113;SDS011;42994;51.606;9.988;2023-04-03T09:27:06;4.10;;;1.63;;
57113;SDS011;42994;51.606;9.988;2023-04-03T09:29:36;3.95;;;0.85;;
57113;SDS011;42994;51.606;9.988;2023-04-03T09:32:12;5.78;;;1.00;;
57113;SDS011;42994;51.606;9.988;2023-04-03T09:34:47;4.40;;;1.00;;
57113;SDS011;42994;51.606;9.988;2023-04-03T09:40:27;2.13;;;0.80;;
57113;SDS011;42994;51.606;9.988;2023-04-03T09:42:56;3.03;;;1.10;;
57113;SDS011;42994;51.606;9.988;2023-04-03T09:45:24;3.92;;;0.90;;
57113;SDS011;42994;51.606;9.988;2023-04-03T09:48:03;3.85;;;0.90;;
57113;SDS011;42994;51.606;9.988;2023-04-03T09:50:33;5.35;;;0.98;;
57113;SDS011;42994;51.606;9.988;2023-04-03T09:53:04;5.15;;;1.10;;
57113;SDS011;42994;51.606;9.988;2023-04-03T09:55:33;1.13;;;0.70;;
57113;SDS011;42994;51.606;9.988;2023-04-03T09:58:22;1.88;;;0.82;;
57113;SDS011;42994;51.606;9.988;2023-04-03T10:03:23;4.90;;;1.23;;
57113;SDS011;42994;51.606;9.988;2023-04-03T10:05:51;3.27;;;1.10;;
57113;SDS011;42994;51.606;9.988;2023-04-03T10:08:21;3.88;;;0.90;;
57113;SDS011;42994;51.606;9.988;2023-04-03T10:13:56;2.65;;;1.08;;
57113;SDS011;42994;51.606;9.988;2023-04-03T10:16:25;1.98;;;1.08;;
57113;SDS011;42994;51.606;9.988;2023-04-03T10:19:01;3.78;;;1.25;;
57113;SDS011;42994;51.606;9.988;2023-04-03T10:21:39;3.22;;;1.13;;
57113;SDS011;42994;51.606;9.988;2023-04-03T10:24:11;3.13;;;1.02;;
57113;SDS011;42994;51.606;9.988;2023-04-03T10:26:45;4.32;;;1.15;;
57113;SDS011;42994;51.606;9.988;2023-04-03T10:29:24;1.75;;;0.95;;
57113;SDS011;42994;51.606;9.988;2023-04-03T10:31:59;1.92;;;1.48;;
57113;SDS011;42994;51.606;9.988;2023-04-03T10:34:39;3.85;;;1.35;;
57113;SDS011;42994;51.606;9.988;2023-04-03T10:37:11;4.63;;;1.58;;
57113;SDS011;42994;51.606;9.988;2023-04-03T10:39:46;3.03;;;1.10;;
57113;SDS011;42994;51.606;9.988;2023-04-03T10:42:22;1.77;;;0.88;;
57113;SDS011;42994;51.606;9.988;2023-04-03T10:45:14;4.30;;;1.55;;
57113;SDS011;42994;51.606;9.988;2023-04-03T10:47:49;3.83;;;1.17;;
57113;SDS011;42994;51.606;9.988;2023-04-03T10:50:27;6.38;;;1.00;;
57113;SDS011;42994;51.606;9.988;2023-04-03T10:53:04;1.65;;;1.05;;
57113;SDS011;42994;51.606;9.988;2023-04-03T10:55:38;4.22;;;1.13;;
57113;SDS011;42994;51.606;9.988;2023-04-03T10:58:10;3.70;;;1.10;;
57113;SDS011;42994;51.606;9.988;2023-04-03T11:00:46;3.03;;;0.90;;
57113;SDS011;42994;51.606;9.988;2023-04-03T11:03:17;2.65;;;0.88;;
57113;SDS011;42994;51.606;9.988;2023-04-03T11:05:53;2.65;;;0.90;;
57113;SDS011;42994;51.606;9.988;2023-04-03T11:08:24;6.13;;;1.25;;
57113;SDS011;42994;51.606;9.988;2023-04-03T11:10:53;3.23;;;1.07;;
57113;SDS011;42994;51.606;9.988;2023-04-03T11:13:24;4.68;;;1.48;;
57113;SDS011;42994;51.606;9.988;2023-04-03T11:15:56;3.03;;;1.05;;
57113;SDS011;42994;51.606;9.988;2023-04-03T11:18:25;3.33;;;1.10;;
57113;SDS011;42994;51.606;9.988;2023-04-03T11:20:58;4.22;;;1.35;;
57113;SDS011;42994;51.606;9.988;2023-04-03T11:23:30;3.25;;;1.08;;
57113;SDS011;42994;51.606;9.988;2023-04-03T11:26:06;3.50;;;0.90;;
57113;SDS011;42994;51.606;9.988;2023-04-03T11:28:35;2.65;;;0.55;;
57113;SDS011;42994;51.606;9.988;2023-04-03T11:31:07;6.88;;;1.15;;
57113;SDS011;42994;51.606;9.988;2023-04-03T11:33:44;5.20;;;1.20;;
57113;SDS011;42994;51.606;9.988;2023-04-03T11:36:23;2.47;;;1.00;;
57113;SDS011;42994;51.606;9.988;2023-04-03T11:38:52;2.58;;;1.08;;
57113;SDS011;42994;51.606;9.988;2023-04-03T11:41:25;3.92;;;0.95;;
57113;SDS011;42994;51.606;9.988;2023-04-03T11:43:57;2.65;;;1.10;;
57113;SDS011;42994;51.606;9.988;2023-04-03T11:58:24;3.67;;;1.00;;
57113;SDS011;42994;51.606;9.988;2023-04-03T12:00:56;4.45;;;1.02;;
57113;SDS011;42994;51.606;9.988;2023-04-03T12:09:32;3.80;;;0.80;;
57113;SDS011;42994;51.606;9.988;2023-04-03T12:12:19;3.22;;;1.05;;
57113;SDS011;42994;51.606;9.988;2023-04-03T12:14:54;4.28;;;1.27;;
57113;SDS011;42994;51.606;9.988;2023-04-03T12:17:22;4.28;;;2.15;;
57113;SDS011;42994;51.606;9.988;2023-04-03T12:19:54;5.28;;;1.35;;
57113;SDS011;42994;51.606;9.988;2023-04-03T12:22:21;4.72;;;2.47;;
57113;SDS011;42994;51.606;9.988;2023-04-03T12:24:48;5.32;;;2.10;;
57113;SDS011;42994;51.606;9.988;2023-04-03T12:27:30;4.95;;;1.20;;
57113;SDS011;42994;51.606;9.988;2023-04-03T12:30:04;4.35;;;1.00;;
57113;SDS011;42994;51.606;9.988;2023-04-03T12:32:44;8.05;;;1.63;;
57113;SDS011;42994;51.606;9.988;2023-04-03T12:35:44;3.60;;;1.23;;
57113;SDS011;42994;51.606;9.988;2023-04-03T12:41:31;3.65;;;1.15;;
57113;SDS011;42994;51.606;9.988;2023-04-03T12:44:11;3.85;;;1.17;;
57113;SDS011;42994;51.606;9.988;2023-04-03T12:46:49;4.00;;;1.60;;
57113;SDS011;42994;51.606;9.988;2023-04-03T12:52:06;2.38;;;1.25;;
57113;SDS011;42994;51.606;9.988;2023-04-03T12:54:43;4.65;;;1.98;;
57113;SDS011;42994;51.606;9.988;2023-04-03T12:57:20;7.20;;;2.08;;
57113;SDS011;42994;51.606;9.988;2023-04-03T12:59:49;4.35;;;1.30;;
57113;SDS011;42994;51.606;9.988;2023-04-03T13:02:19;3.83;;;1.10;;
57113;SDS011;42994;51.606;9.988;2023-04-03T13:04:49;5.82;;;1.60;;
57113;SDS011;42994;51.606;9.988;2023-04-03T13:07:23;3.15;;;1.10;;
57113;SDS011;42994;51.606;9.988;2023-04-03T13:10:00;3.17;;;1.02;;
57113;SDS011;42994;51.606;9.988;2023-04-03T13:12:30;3.35;;;1.13;;
57113;SDS011;42994;51.606;9.988;2023-04-03T13:14:57;6.07;;;1.92;;
57113;SDS011;42994;51.606;9.988;2023-04-03T13:17:25;4.10;;;1.40;;
57113;SDS011;42994;51.606;9.988;2023-04-03T13:19:54;2.22;;;1.27;;
57113;SDS011;42994;51.606;9.988;2023-04-03T13:22:29;3.38;;;1.35;;
57113;SDS011;42994;51.606;9.988;2023-04-03T13:25:04;3.60;;;1.38;;
57113;SDS011;42994;51.606;9.988;2023-04-03T13:27:34;3.45;;;1.13;;
57113;SDS011;42994;51.606;9.988;2023-04-03T13:30:02;2.78;;;1.17;;
57113;SDS011;42994;51.606;9.988;2023-04-03T13:32:32;4.20;;;2.03;;
57113;SDS011;42994;51.606;9.988;2023-04-03T13:34:59;4.47;;;1.63;;
57113;SDS011;42994;51.606;9.988;2023-04-03T13:37:26;3.17;;;1.40;;
57113;SDS011;42994;51.606;9.988;2023-04-03T13:39:57;3.45;;;1.55;;
57113;SDS011;42994;51.606;9.988;2023-04-03T13:42:26;2.47;;;1.27;;
57113;SDS011;42994;51.606;9.988;2023-04-03T13:45:08;1.80;;;1.02;;
57113;SDS011;42994;51.606;9.988;2023-04-03T13:47:38;3.15;;;0.88;;
57113;SDS011;42994;51.606;9.988;2023-04-03T13:50:14;2.65;;;1.08;;
57113;SDS011;42994;51.606;9.988;2023-04-03T13:52:45;2.63;;;0.75;;
57113;SDS011;42994;51.606;9.988;2023-04-03T13:55:18;4.33;;;1.30;;
57113;SDS011;42994;51.606;9.988;2023-04-03T13:57:51;2.42;;;1.17;;
57113;SDS011;42994;51.606;9.988;2023-04-03T14:00:32;4.30;;;1.55;;
57113;SDS011;42994;51.606;9.988;2023-04-03T14:03:02;5.97;;;1.88;;
57113;SDS011;42994;51.606;9.988;2023-04-03T14:05:37;7.70;;;2.35;;
57113;SDS011;42994;51.606;9.988;2023-04-03T14:08:05;3.20;;;1.35;;
57113;SDS011;42994;51.606;9.988;2023-04-03T14:10:32;6.15;;;1.60;;
57113;SDS011;42994;51.606;9.988;2023-04-03T14:12:59;5.65;;;1.10;;
57113;SDS011;42994;51.606;9.988;2023-04-03T14:15:27;3.42;;;1.23;;
57113;SDS011;42994;51.606;9.988;2023-04-03T14:17:56;2.95;;;1.25;;
57113;SDS011;42994;51.606;9.988;2023-04-03T14:20:24;4.22;;;1.20;;
57113;SDS011;42994;51.606;9.988;2023-04-03T14:22:52;3.20;;;1.17;;
57113;SDS011;42994;51.606;9.988;2023-04-03T14:25:21;4.20;;;1.75;;
57113;SDS011;42994;51.606;9.988;2023-04-03T14:27:49;2.13;;;0.93;;
57113;SDS011;42994;51.606;9.988;2023-04-03T14:30:20;4.50;;;1.60;;
57113;SDS011;42994;51.606;9.988;2023-04-03T14:32:49;1.67;;;0.80;;
57113;SDS011;42994;51.606;9.988;2023-04-03T14:35:16;3.88;;;0.90;;
57113;SDS011;42994;51.606;9.988;2023-04-03T14:37:44;2.50;;;1.05;;
57113;SDS011;42994;51.606;9.988;2023-04-03T14:40:13;3.88;;;1.45;;
57113;SDS011;42994;51.606;9.988;2023-04-03T14:42:43;1.83;;;1.00;;
57113;SDS011;42994;51.606;9.988;2023-04-03T14:45:12;5.30;;;1.50;;
57113;SDS011;42994;51.606;9.988;2023-04-03T14:47:41;2.78;;;1.40;;
57113;SDS011;42994;51.606;9.988;2023-04-03T14:50:12;1.90;;;1.02;;
57113;SDS011;42994;51.606;9.988;2023-04-03T14:52:40;2.75;;;1.00;;
57113;SDS011;42994;51.606;9.988;2023-04-03T14:55:08;2.83;;;1.20;;
57113;SDS011;42994;51.606;9.988;2023-04-03T14:57:35;4.03;;;1.00;;
57113;SDS011;42994;51.606;9.988;2023-04-03T15:00:06;6.72;;;1.60;;
57113;SDS011;42994;51.606;9.988;2023-04-03T15:02:37;2.92;;;1.13;;
57113;SDS011;42994;51.606;9.988;2023-04-03T15:05:05;3.30;;;1.25;;
57113;SDS011;42994;51.606;9.988;2023-04-03T15:07:34;3.13;;;1.00;;
57113;SDS011;42994;51.606;9.988;2023-04-03T15:10:06;2.88;;;1.40;;
57113;SDS011;42994;51.606;9.988;2023-04-03T15:12:41;2.55;;;0.90;;
57113;SDS011;42994;51.606;9.988;2023-04-03T15:15:10;4.13;;;1.52;;
57113;SDS011;42994;51.606;9.988;2023-04-03T15:17:37;3.63;;;0.98;;
57113;SDS011;42994;51.606;9.988;2023-04-03T15:20:06;2.80;;;1.10;;
57113;SDS011;42994;51.606;9.988;2023-04-03T15:22:38;3.40;;;1.13;;
57113;SDS011;42994;51.606;9.988;2023-04-03T15:25:05;1.85;;;1.10;;
57113;SDS011;42994;51.606;9.988;2023-04-03T15:27:32;3.42;;;1.45;;
57113;SDS011;42994;51.606;9.988;2023-04-03T15:29:59;1.80;;;1.27;;
57113;SDS011;42994;51.606;9.988;2023-04-03T15:32:27;3.35;;;1.70;;
57113;SDS011;42994;51.606;9.988;2023-04-03T15:34:54;5.68;;;1.25;;
57113;SDS011;42994;51.606;9.988;2023-04-03T15:37:20;1.70;;;1.20;;